sensor_id;sensor_type;location;lat;lon;timestamp;P1;durP1;ratioP1;P2;durP2;ratioP2
6858;SDS011;3468;42.824;23.240;2024-02-23T00:01:24;43.00;;;17.37;;
6858;SDS011;3468;42.824;23.240;2024-02-23T00:03:51;46.17;;;18.17;;
6858;SDS011;3468;42.824;23.240;2024-02-23T00:06:18;17.43;;;9.70;;
6858;SDS011;3468;42.824;23.240;2024-02-23T00:08:44;21.50;;;10.20;;
6858;SDS011;3468;42.824;23.240;2024-02-23T00:11:11;19.13;;;10.97;;
6858;SDS011;3468;42.824;23.240;2024-02-23T00:13:38;19.53;;;10.87;;
6858;SDS011;3468;42.824;23.240;2024-02-23T00:16:06;19.17;;;10.33;;
6858;SDS011;3468;42.824;23.240;2024-02-23T00:18:32;17.20;;;9.80;;
6858;SDS011;3468;42.824;23.240;2024-02-23T00:20:59;17.93;;;10.43;;
6858;SDS011;3468;42.824;23.240;2024-02-23T00:23:26;20.60;;;11.23;;
6858;SDS011;3468;42.824;23.240;2024-02-23T00:25:54;17.30;;;10.20;;
6858;SDS011;3468;42.824;23.240;2024-02-23T00:28:20;18.60;;;10.10;;
6858;SDS011;3468;42.824;23.240;2024-02-23T00:30:48;17.43;;;10.20;;
6858;SDS011;3468;42.824;23.240;2024-02-23T00:33:16;20.70;;;11.70;;
6858;SDS011;3468;42.824;23.240;2024-02-23T00:35:42;20.77;;;11.83;;
6858;SDS011;3468;42.824;23.240;2024-02-23T00:38:09;23.97;;;11.27;;
6858;SDS011;3468;42.824;23.240;2024-02-23T00:40:36;22.43;;;11.60;;
6858;SDS011;3468;42.824;23.240;2024-02-23T00:43:03;15.27;;;10.70;;
6858;SDS011;3468;42.824;23.240;2024-02-23T00:45:30;21.33;;;11.13;;
6858;SDS011;3468;42.824;23.240;2024-02-23T00:47:56;22.13;;;11.00;;
6858;SDS011;3468;42.824;23.240;2024-02-23T00:50:25;21.13;;;10.87;;
6858;SDS011;3468;42.824;23.240;2024-02-23T00:52:52;17.60;;;10.17;;
6858;SDS011;3468;42.824;23.240;2024-02-23T00:55:19;21.13;;;11.07;;
6858;SDS011;3468;42.824;23.240;2024-02-23T00:57:46;19.50;;;10.77;;
6858;SDS011;3468;42.824;23.240;2024-02-23T01:00:12;20.30;;;10.43;;
6858;SDS011;3468;42.824;23.240;2024-02-23T01:02:39;22.63;;;11.30;;
6858;SDS011;3468;42.824;23.240;2024-02-23T01:05:06;17.43;;;10.87;;
6858;SDS011;3468;42.824;23.240;2024-02-23T01:07:35;21.97;;;11.50;;
6858;SDS011;3468;42.824;23.240;2024-02-23T01:10:02;21.73;;;11.83;;
6858;SDS011;3468;42.824;23.240;2024-02-23T01:12:29;26.13;;;12.80;;
6858;SDS011;3468;42.824;23.240;2024-02-23T01:14:56;22.30;;;11.57;;
6858;SDS011;3468;42.824;23.240;2024-02-23T01:17:23;22.43;;;12.37;;
6858;SDS011;3468;42.824;23.240;2024-02-23T01:19:50;17.70;;;10.03;;
6858;SDS011;3468;42.824;23.240;2024-02-23T01:22:17;21.53;;;11.23;;
6858;SDS011;3468;42.824;23.240;2024-02-23T01:24:45;20.37;;;11.03;;
6858;SDS011;3468;42.824;23.240;2024-02-23T01:27:11;18.13;;;10.93;;
6858;SDS011;3468;42.824;23.240;2024-02-23T01:29:38;19.87;;;10.83;;
6858;SDS011;3468;42.824;23.240;2024-02-23T01:32:05;21.23;;;11.03;;
6858;SDS011;3468;42.824;23.240;2024-02-23T01:34:32;18.90;;;11.07;;
6858;SDS011;3468;42.824;23.240;2024-02-23T01:36:59;19.20;;;10.43;;
6858;SDS011;3468;42.824;23.240;2024-02-23T01:39:26;18.40;;;10.27;;
6858;SDS011;3468;42.824;23.240;2024-02-23T01:41:54;20.47;;;10.23;;
6858;SDS011;3468;42.824;23.240;2024-02-23T01:44:21;19.73;;;10.40;;
6858;SDS011;3468;42.824;23.240;2024-02-23T01:46:48;23.73;;;12.50;;
6858;SDS011;3468;42.824;23.240;2024-02-23T01:49:15;21.90;;;11.40;;
6858;SDS011;3468;42.824;23.240;2024-02-23T01:51:42;21.60;;;11.60;;
6858;SDS011;3468;42.824;23.240;2024-02-23T01:54:09;19.83;;;11.53;;
6858;SDS011;3468;42.824;23.240;2024-02-23T01:56:36;19.93;;;11.67;;
6858;SDS011;3468;42.824;23.240;2024-02-23T01:59:06;24.00;;;10.97;;
6858;SDS011;3468;42.824;23.240;2024-02-23T02:01:36;19.63;;;10.70;;
6858;SDS011;3468;42.824;23.240;2024-02-23T02:04:03;22.00;;;11.67;;
6858;SDS011;3468;42.824;23.240;2024-02-23T02:06:29;24.47;;;11.67;;
6858;SDS011;3468;42.824;23.240;2024-02-23T02:08:56;21.93;;;11.10;;
6858;SDS011;3468;42.824;23.240;2024-02-23T02:11:23;19.73;;;11.07;;
6858;SDS011;3468;42.824;23.240;2024-02-23T02:13:50;17.37;;;10.03;;
6858;SDS011;3468;42.824;23.240;2024-02-23T02:16:18;18.80;;;10.43;;
6858;SDS011;3468;42.824;23.240;2024-02-23T02:18:44;19.13;;;11.10;;
6858;SDS011;3468;42.824;23.240;2024-02-23T02:21:12;19.03;;;10.37;;
6858;SDS011;3468;42.824;23.240;2024-02-23T02:23:38;19.67;;;11.97;;
6858;SDS011;3468;42.824;23.240;2024-02-23T02:26:05;21.77;;;11.10;;
6858;SDS011;3468;42.824;23.240;2024-02-23T02:28:32;22.57;;;11.67;;
6858;SDS011;3468;42.824;23.240;2024-02-23T02:30:59;24.67;;;11.57;;
6858;SDS011;3468;42.824;23.240;2024-02-23T02:33:27;22.47;;;11.83;;
6858;SDS011;3468;42.824;23.240;2024-02-23T02:35:54;20.87;;;10.67;;
6858;SDS011;3468;42.824;23.240;2024-02-23T02:38:20;17.80;;;10.80;;
6858;SDS011;3468;42.824;23.240;2024-02-23T02:40:47;17.80;;;10.33;;
6858;SDS011;3468;42.824;23.240;2024-02-23T02:43:14;19.70;;;10.40;;
6858;SDS011;3468;42.824;23.240;2024-02-23T02:45:40;20.23;;;11.17;;
6858;SDS011;3468;42.824;23.240;2024-02-23T02:48:07;22.97;;;11.37;;
6858;SDS011;3468;42.824;23.240;2024-02-23T02:50:35;23.07;;;12.10;;
6858;SDS011;3468;42.824;23.240;2024-02-23T02:53:02;21.70;;;11.60;;
6858;SDS011;3468;42.824;23.240;2024-02-23T02:55:29;22.70;;;11.80;;
6858;SDS011;3468;42.824;23.240;2024-02-23T02:57:56;20.83;;;10.70;;
6858;SDS011;3468;42.824;23.240;2024-02-23T03:00:23;19.27;;;10.23;;
6858;SDS011;3468;42.824;23.240;2024-02-23T03:02:50;17.00;;;10.73;;
6858;SDS011;3468;42.824;23.240;2024-02-23T03:05:17;22.80;;;12.03;;
6858;SDS011;3468;42.824;23.240;2024-02-23T03:07:45;22.03;;;11.20;;
6858;SDS011;3468;42.824;23.240;2024-02-23T03:10:12;20.87;;;10.57;;
6858;SDS011;3468;42.824;23.240;2024-02-23T03:12:38;19.97;;;11.13;;
6858;SDS011;3468;42.824;23.240;2024-02-23T03:15:05;25.33;;;11.40;;
6858;SDS011;3468;42.824;23.240;2024-02-23T03:17:32;28.47;;;12.97;;
6858;SDS011;3468;42.824;23.240;2024-02-23T03:19:59;23.77;;;11.83;;
6858;SDS011;3468;42.824;23.240;2024-02-23T03:22:26;20.50;;;11.40;;
6858;SDS011;3468;42.824;23.240;2024-02-23T03:24:54;18.03;;;10.57;;
6858;SDS011;3468;42.824;23.240;2024-02-23T03:27:21;23.47;;;11.90;;
6858;SDS011;3468;42.824;23.240;2024-02-23T03:29:55;21.47;;;11.23;;
6858;SDS011;3468;42.824;23.240;2024-02-23T03:32:22;21.30;;;11.27;;
6858;SDS011;3468;42.824;23.240;2024-02-23T03:34:48;24.13;;;12.03;;
6858;SDS011;3468;42.824;23.240;2024-02-23T03:37:15;26.53;;;13.17;;
6858;SDS011;3468;42.824;23.240;2024-02-23T03:39:42;24.17;;;12.40;;
6858;SDS011;3468;42.824;23.240;2024-02-23T03:42:10;20.30;;;10.43;;
6858;SDS011;3468;42.824;23.240;2024-02-23T03:44:36;19.67;;;10.87;;
6858;SDS011;3468;42.824;23.240;2024-02-23T03:47:03;17.07;;;9.80;;
6858;SDS011;3468;42.824;23.240;2024-02-23T03:49:30;18.83;;;10.53;;
6858;SDS011;3468;42.824;23.240;2024-02-23T03:51:56;17.53;;;10.43;;
6858;SDS011;3468;42.824;23.240;2024-02-23T03:54:23;19.53;;;9.70;;
6858;SDS011;3468;42.824;23.240;2024-02-23T03:56:50;18.27;;;11.10;;
6858;SDS011;3468;42.824;23.240;2024-02-23T03:59:18;24.33;;;10.83;;
6858;SDS011;3468;42.824;23.240;2024-02-23T04:01:45;18.73;;;10.03;;
6858;SDS011;3468;42.824;23.240;2024-02-23T04:04:12;18.70;;;10.50;;
6858;SDS011;3468;42.824;23.240;2024-02-23T04:06:38;19.77;;;11.93;;
6858;SDS011;3468;42.824;23.240;2024-02-23T04:09:05;20.00;;;10.93;;
6858;SDS011;3468;42.824;23.240;2024-02-23T04:11:33;17.00;;;9.80;;
6858;SDS011;3468;42.824;23.240;2024-02-23T04:14:01;26.17;;;13.53;;
6858;SDS011;3468;42.824;23.240;2024-02-23T04:16:31;19.07;;;10.83;;
6858;SDS011;3468;42.824;23.240;2024-02-23T04:18:58;18.33;;;10.43;;
6858;SDS011;3468;42.824;23.240;2024-02-23T04:21:25;16.93;;;10.67;;
6858;SDS011;3468;42.824;23.240;2024-02-23T04:23:52;16.60;;;9.83;;
6858;SDS011;3468;42.824;23.240;2024-02-23T04:26:19;18.90;;;10.20;;
6858;SDS011;3468;42.824;23.240;2024-02-23T04:28:45;18.90;;;9.90;;
6858;SDS011;3468;42.824;23.240;2024-02-23T04:31:12;19.33;;;9.80;;
6858;SDS011;3468;42.824;23.240;2024-02-23T04:33:40;22.20;;;10.50;;
6858;SDS011;3468;42.824;23.240;2024-02-23T04:36:07;18.80;;;10.33;;
6858;SDS011;3468;42.824;23.240;2024-02-23T04:38:34;20.30;;;10.90;;
6858;SDS011;3468;42.824;23.240;2024-02-23T04:41:02;17.67;;;10.70;;
6858;SDS011;3468;42.824;23.240;2024-02-23T04:43:30;16.87;;;9.87;;
6858;SDS011;3468;42.824;23.240;2024-02-23T04:45:57;18.67;;;10.13;;
6858;SDS011;3468;42.824;23.240;2024-02-23T04:48:23;21.33;;;9.73;;
6858;SDS011;3468;42.824;23.240;2024-02-23T04:50:52;20.67;;;11.10;;
6858;SDS011;3468;42.824;23.240;2024-02-23T04:53:18;21.63;;;11.07;;
6858;SDS011;3468;42.824;23.240;2024-02-23T04:55:45;20.60;;;11.57;;
6858;SDS011;3468;42.824;23.240;2024-02-23T04:58:12;18.50;;;10.90;;
6858;SDS011;3468;42.824;23.240;2024-02-23T05:00:38;21.53;;;10.80;;
6858;SDS011;3468;42.824;23.240;2024-02-23T05:03:05;18.50;;;10.43;;
6858;SDS011;3468;42.824;23.240;2024-02-23T05:05:32;21.50;;;10.93;;
6858;SDS011;3468;42.824;23.240;2024-02-23T05:08:00;23.83;;;11.10;;
6858;SDS011;3468;42.824;23.240;2024-02-23T05:10:27;19.63;;;10.43;;
6858;SDS011;3468;42.824;23.240;2024-02-23T05:12:54;24.20;;;13.47;;
6858;SDS011;3468;42.824;23.240;2024-02-23T05:15:21;19.40;;;12.43;;
6858;SDS011;3468;42.824;23.240;2024-02-23T05:17:47;21.20;;;11.07;;
6858;SDS011;3468;42.824;23.240;2024-02-23T05:20:14;20.10;;;10.20;;
6858;SDS011;3468;42.824;23.240;2024-02-23T05:22:41;21.40;;;10.57;;
6858;SDS011;3468;42.824;23.240;2024-02-23T05:25:09;19.10;;;11.17;;
6858;SDS011;3468;42.824;23.240;2024-02-23T05:27:36;18.17;;;10.43;;
6858;SDS011;3468;42.824;23.240;2024-02-23T05:30:03;16.73;;;9.73;;
6858;SDS011;3468;42.824;23.240;2024-02-23T05:32:31;19.97;;;10.53;;
6858;SDS011;3468;42.824;23.240;2024-02-23T05:34:58;18.83;;;10.90;;
6858;SDS011;3468;42.824;23.240;2024-02-23T05:37:25;17.77;;;10.40;;
6858;SDS011;3468;42.824;23.240;2024-02-23T05:39:52;17.33;;;10.70;;
6858;SDS011;3468;42.824;23.240;2024-02-23T05:42:20;17.40;;;10.67;;
6858;SDS011;3468;42.824;23.240;2024-02-23T05:44:47;25.50;;;11.53;;
6858;SDS011;3468;42.824;23.240;2024-02-23T05:47:14;21.10;;;10.40;;
6858;SDS011;3468;42.824;23.240;2024-02-23T05:49:41;18.50;;;9.80;;
6858;SDS011;3468;42.824;23.240;2024-02-23T05:52:07;14.13;;;8.07;;
6858;SDS011;3468;42.824;23.240;2024-02-23T05:54:34;19.93;;;9.37;;
6858;SDS011;3468;42.824;23.240;2024-02-23T05:57:01;15.10;;;8.63;;
6858;SDS011;3468;42.824;23.240;2024-02-23T05:59:30;13.13;;;8.33;;
6858;SDS011;3468;42.824;23.240;2024-02-23T06:01:57;12.87;;;8.30;;
6858;SDS011;3468;42.824;23.240;2024-02-23T06:04:23;11.83;;;8.30;;
6858;SDS011;3468;42.824;23.240;2024-02-23T06:06:50;12.67;;;7.80;;
6858;SDS011;3468;42.824;23.240;2024-02-23T06:09:17;10.50;;;7.13;;
6858;SDS011;3468;42.824;23.240;2024-02-23T06:11:44;13.33;;;8.00;;
6858;SDS011;3468;42.824;23.240;2024-02-23T06:14:10;12.67;;;7.67;;
6858;SDS011;3468;42.824;23.240;2024-02-23T06:16:39;13.85;;;7.68;;
6858;SDS011;3468;42.824;23.240;2024-02-23T06:19:06;11.63;;;7.85;;
6858;SDS011;3468;42.824;23.240;2024-02-23T06:21:33;12.93;;;7.75;;
6858;SDS011;3468;42.824;23.240;2024-02-23T06:23:59;15.88;;;8.52;;
6858;SDS011;3468;42.824;23.240;2024-02-23T06:26:26;12.90;;;7.57;;
6858;SDS011;3468;42.824;23.240;2024-02-23T06:28:53;11.50;;;7.15;;
6858;SDS011;3468;42.824;23.240;2024-02-23T06:31:19;13.05;;;8.07;;
6858;SDS011;3468;42.824;23.240;2024-02-23T06:33:47;13.35;;;7.60;;
6858;SDS011;3468;42.824;23.240;2024-02-23T06:36:16;16.70;;;8.95;;
6858;SDS011;3468;42.824;23.240;2024-02-23T06:38:43;12.38;;;7.18;;
6858;SDS011;3468;42.824;23.240;2024-02-23T06:41:10;11.60;;;7.17;;
6858;SDS011;3468;42.824;23.240;2024-02-23T06:43:37;11.13;;;7.10;;
6858;SDS011;3468;42.824;23.240;2024-02-23T06:46:05;12.50;;;7.50;;
6858;SDS011;3468;42.824;23.240;2024-02-23T06:48:33;20.93;;;11.07;;
6858;SDS011;3468;42.824;23.240;2024-02-23T06:51:01;17.33;;;9.67;;
6858;SDS011;3468;42.824;23.240;2024-02-23T06:53:28;13.07;;;7.80;;
6858;SDS011;3468;42.824;23.240;2024-02-23T06:55:55;16.47;;;7.13;;
6858;SDS011;3468;42.824;23.240;2024-02-23T06:58:24;12.33;;;6.80;;
6858;SDS011;3468;42.824;23.240;2024-02-23T07:00:50;13.03;;;6.77;;
6858;SDS011;3468;42.824;23.240;2024-02-23T07:03:17;12.63;;;7.10;;
6858;SDS011;3468;42.824;23.240;2024-02-23T07:05:44;10.60;;;6.73;;
6858;SDS011;3468;42.824;23.240;2024-02-23T07:08:13;11.83;;;6.97;;
6858;SDS011;3468;42.824;23.240;2024-02-23T07:10:40;14.93;;;7.30;;
6858;SDS011;3468;42.824;23.240;2024-02-23T07:13:07;14.50;;;7.60;;
6858;SDS011;3468;42.824;23.240;2024-02-23T07:15:34;13.27;;;7.50;;
6858;SDS011;3468;42.824;23.240;2024-02-23T07:18:02;17.77;;;6.97;;
6858;SDS011;3468;42.824;23.240;2024-02-23T07:20:29;9.27;;;6.77;;
6858;SDS011;3468;42.824;23.240;2024-02-23T07:22:56;11.83;;;6.80;;
6858;SDS011;3468;42.824;23.240;2024-02-23T07:25:24;9.97;;;6.40;;
6858;SDS011;3468;42.824;23.240;2024-02-23T07:27:51;12.77;;;6.90;;
6858;SDS011;3468;42.824;23.240;2024-02-23T07:30:18;11.80;;;7.20;;
6858;SDS011;3468;42.824;23.240;2024-02-23T07:32:45;11.17;;;7.30;;
6858;SDS011;3468;42.824;23.240;2024-02-23T07:35:12;11.30;;;7.50;;
6858;SDS011;3468;42.824;23.240;2024-02-23T07:37:39;11.27;;;7.40;;
6858;SDS011;3468;42.824;23.240;2024-02-23T07:40:06;11.88;;;7.22;;
6858;SDS011;3468;42.824;23.240;2024-02-23T07:42:35;11.48;;;6.82;;
6858;SDS011;3468;42.824;23.240;2024-02-23T07:45:02;10.40;;;7.07;;
6858;SDS011;3468;42.824;23.240;2024-02-23T07:47:29;14.45;;;8.63;;
6858;SDS011;3468;42.824;23.240;2024-02-23T07:49:56;11.70;;;7.85;;
6858;SDS011;3468;42.824;23.240;2024-02-23T07:52:23;12.35;;;6.82;;
6858;SDS011;3468;42.824;23.240;2024-02-23T07:54:50;11.70;;;7.38;;
6858;SDS011;3468;42.824;23.240;2024-02-23T07:57:17;11.23;;;5.93;;
6858;SDS011;3468;42.824;23.240;2024-02-23T07:59:46;12.05;;;6.40;;
6858;SDS011;3468;42.824;23.240;2024-02-23T08:02:13;11.05;;;6.10;;
6858;SDS011;3468;42.824;23.240;2024-02-23T08:04:40;11.75;;;6.30;;
6858;SDS011;3468;42.824;23.240;2024-02-23T08:07:07;10.13;;;5.90;;
6858;SDS011;3468;42.824;23.240;2024-02-23T08:09:34;12.52;;;5.88;;
6858;SDS011;3468;42.824;23.240;2024-02-23T08:12:01;8.38;;;6.07;;
6858;SDS011;3468;42.824;23.240;2024-02-23T08:14:28;10.00;;;5.70;;
6858;SDS011;3468;42.824;23.240;2024-02-23T08:16:57;8.57;;;5.82;;
6858;SDS011;3468;42.824;23.240;2024-02-23T08:19:23;7.72;;;5.97;;
6858;SDS011;3468;42.824;23.240;2024-02-23T08:21:50;7.57;;;4.72;;
6858;SDS011;3468;42.824;23.240;2024-02-23T08:24:17;10.05;;;5.03;;
6858;SDS011;3468;42.824;23.240;2024-02-23T08:26:43;8.73;;;5.68;;
6858;SDS011;3468;42.824;23.240;2024-02-23T08:29:10;9.73;;;4.95;;
6858;SDS011;3468;42.824;23.240;2024-02-23T08:31:37;10.85;;;4.75;;
6858;SDS011;3468;42.824;23.240;2024-02-23T08:34:05;8.07;;;5.10;;
6858;SDS011;3468;42.824;23.240;2024-02-23T08:36:32;10.68;;;6.32;;
6858;SDS011;3468;42.824;23.240;2024-02-23T08:38:59;8.55;;;5.40;;
6858;SDS011;3468;42.824;23.240;2024-02-23T08:41:25;8.57;;;5.03;;
6858;SDS011;3468;42.824;23.240;2024-02-23T08:43:52;6.55;;;4.28;;
6858;SDS011;3468;42.824;23.240;2024-02-23T08:46:20;7.53;;;4.68;;
6858;SDS011;3468;42.824;23.240;2024-02-23T08:48:47;9.35;;;4.78;;
6858;SDS011;3468;42.824;23.240;2024-02-23T08:51:15;8.20;;;4.63;;
6858;SDS011;3468;42.824;23.240;2024-02-23T08:53:42;8.37;;;4.53;;
6858;SDS011;3468;42.824;23.240;2024-02-23T08:56:09;7.63;;;3.37;;
6858;SDS011;3468;42.824;23.240;2024-02-23T08:58:37;6.33;;;3.57;;
6858;SDS011;3468;42.824;23.240;2024-02-23T09:01:04;7.40;;;3.77;;
6858;SDS011;3468;42.824;23.240;2024-02-23T09:03:31;5.73;;;3.73;;
6858;SDS011;3468;42.824;23.240;2024-02-23T09:05:57;6.20;;;4.10;;
6858;SDS011;3468;42.824;23.240;2024-02-23T09:08:25;14.17;;;4.97;;
6858;SDS011;3468;42.824;23.240;2024-02-23T09:10:52;25.30;;;10.40;;
6858;SDS011;3468;42.824;23.240;2024-02-23T09:13:19;6.63;;;4.03;;
6858;SDS011;3468;42.824;23.240;2024-02-23T09:15:45;6.38;;;4.03;;
6858;SDS011;3468;42.824;23.240;2024-02-23T09:18:12;5.57;;;2.83;;
6858;SDS011;3468;42.824;23.240;2024-02-23T09:20:39;5.60;;;3.33;;
6858;SDS011;3468;42.824;23.240;2024-02-23T09:23:06;6.77;;;3.87;;
6858;SDS011;3468;42.824;23.240;2024-02-23T09:25:34;5.17;;;2.90;;
6858;SDS011;3468;42.824;23.240;2024-02-23T09:28:01;5.20;;;3.50;;
6858;SDS011;3468;42.824;23.240;2024-02-23T09:30:28;5.13;;;2.70;;
6858;SDS011;3468;42.824;23.240;2024-02-23T09:32:54;5.03;;;3.07;;
6858;SDS011;3468;42.824;23.240;2024-02-23T09:35:21;5.47;;;3.33;;
6858;SDS011;3468;42.824;23.240;2024-02-23T09:37:48;5.80;;;3.13;;
6858;SDS011;3468;42.824;23.240;2024-02-23T09:40:14;3.00;;;2.70;;
6858;SDS011;3468;42.824;23.240;2024-02-23T09:42:43;6.03;;;2.80;;
6858;SDS011;3468;42.824;23.240;2024-02-23T09:45:20;9.03;;;3.43;;
6858;SDS011;3468;42.824;23.240;2024-02-23T09:47:47;5.17;;;3.30;;
6858;SDS011;3468;42.824;23.240;2024-02-23T09:50:15;5.73;;;3.20;;
6858;SDS011;3468;42.824;23.240;2024-02-23T09:52:46;5.10;;;3.10;;
6858;SDS011;3468;42.824;23.240;2024-02-23T09:55:15;5.47;;;2.87;;
6858;SDS011;3468;42.824;23.240;2024-02-23T09:57:44;6.30;;;2.27;;
6858;SDS011;3468;42.824;23.240;2024-02-23T10:00:12;5.80;;;2.63;;
6858;SDS011;3468;42.824;23.240;2024-02-23T10:02:42;3.47;;;2.30;;
6858;SDS011;3468;42.824;23.240;2024-02-23T10:05:10;4.93;;;2.60;;
6858;SDS011;3468;42.824;23.240;2024-02-23T10:07:37;2.47;;;2.17;;
6858;SDS011;3468;42.824;23.240;2024-02-23T10:10:06;4.77;;;2.67;;
6858;SDS011;3468;42.824;23.240;2024-02-23T10:12:33;9.67;;;2.40;;
6858;SDS011;3468;42.824;23.240;2024-02-23T10:15:01;5.67;;;2.30;;
6858;SDS011;3468;42.824;23.240;2024-02-23T10:17:29;8.17;;;2.80;;
6858;SDS011;3468;42.824;23.240;2024-02-23T10:19:55;3.80;;;2.73;;
6858;SDS011;3468;42.824;23.240;2024-02-23T10:22:23;4.07;;;2.53;;
6858;SDS011;3468;42.824;23.240;2024-02-23T10:24:53;4.63;;;2.80;;
6858;SDS011;3468;42.824;23.240;2024-02-23T10:27:20;4.73;;;2.97;;
6858;SDS011;3468;42.824;23.240;2024-02-23T10:29:49;3.63;;;2.40;;
6858;SDS011;3468;42.824;23.240;2024-02-23T10:32:18;5.60;;;3.00;;
6858;SDS011;3468;42.824;23.240;2024-02-23T10:34:47;4.00;;;2.70;;
6858;SDS011;3468;42.824;23.240;2024-02-23T10:37:15;3.83;;;2.77;;
6858;SDS011;3468;42.824;23.240;2024-02-23T10:39:42;5.00;;;2.90;;
6858;SDS011;3468;42.824;23.240;2024-02-23T10:42:10;5.23;;;2.60;;
6858;SDS011;3468;42.824;23.240;2024-02-23T10:44:37;5.93;;;3.33;;
6858;SDS011;3468;42.824;23.240;2024-02-23T10:47:06;3.90;;;2.80;;
6858;SDS011;3468;42.824;23.240;2024-02-23T10:49:34;6.30;;;2.73;;
6858;SDS011;3468;42.824;23.240;2024-02-23T10:52:05;4.07;;;2.57;;
6858;SDS011;3468;42.824;23.240;2024-02-23T10:54:33;3.83;;;2.30;;
6858;SDS011;3468;42.824;23.240;2024-02-23T10:57:01;5.00;;;2.47;;
6858;SDS011;3468;42.824;23.240;2024-02-23T10:59:28;2.73;;;2.20;;
6858;SDS011;3468;42.824;23.240;2024-02-23T11:01:55;7.17;;;2.50;;
6858;SDS011;3468;42.824;23.240;2024-02-23T11:04:24;5.13;;;3.10;;
6858;SDS011;3468;42.824;23.240;2024-02-23T11:06:54;4.03;;;2.57;;
6858;SDS011;3468;42.824;23.240;2024-02-23T11:09:24;4.73;;;2.40;;
6858;SDS011;3468;42.824;23.240;2024-02-23T11:11:54;4.13;;;2.33;;
6858;SDS011;3468;42.824;23.240;2024-02-23T11:14:30;3.83;;;2.53;;
6858;SDS011;3468;42.824;23.240;2024-02-23T11:16:58;5.43;;;2.50;;
6858;SDS011;3468;42.824;23.240;2024-02-23T11:19:32;2.70;;;1.90;;
6858;SDS011;3468;42.824;23.240;2024-02-23T11:22:01;3.90;;;2.70;;
6858;SDS011;3468;42.824;23.240;2024-02-23T11:24:28;6.50;;;2.87;;
6858;SDS011;3468;42.824;23.240;2024-02-23T11:26:56;4.40;;;2.20;;
6858;SDS011;3468;42.824;23.240;2024-02-23T11:29:25;3.57;;;1.97;;
6858;SDS011;3468;42.824;23.240;2024-02-23T11:31:53;4.13;;;2.30;;
6858;SDS011;3468;42.824;23.240;2024-02-23T11:34:26;3.23;;;2.17;;
6858;SDS011;3468;42.824;23.240;2024-02-23T11:36:53;3.30;;;2.20;;
6858;SDS011;3468;42.824;23.240;2024-02-23T11:39:22;2.83;;;2.00;;
6858;SDS011;3468;42.824;23.240;2024-02-23T11:41:49;3.53;;;2.30;;
6858;SDS011;3468;42.824;23.240;2024-02-23T11:44:16;6.47;;;2.43;;
6858;SDS011;3468;42.824;23.240;2024-02-23T11:46:43;3.63;;;2.20;;
6858;SDS011;3468;42.824;23.240;2024-02-23T11:49:11;3.90;;;2.00;;
6858;SDS011;3468;42.824;23.240;2024-02-23T11:51:38;3.27;;;2.40;;
6858;SDS011;3468;42.824;23.240;2024-02-23T11:54:05;5.67;;;2.03;;
6858;SDS011;3468;42.824;23.240;2024-02-23T11:56:33;5.67;;;2.30;;
6858;SDS011;3468;42.824;23.240;2024-02-23T11:59:01;2.33;;;1.70;;
6858;SDS011;3468;42.824;23.240;2024-02-23T12:01:29;3.23;;;2.20;;
6858;SDS011;3468;42.824;23.240;2024-02-23T12:03:57;5.78;;;2.33;;
6858;SDS011;3468;42.824;23.240;2024-02-23T12:06:24;6.65;;;2.28;;
6858;SDS011;3468;42.824;23.240;2024-02-23T12:08:54;3.55;;;2.03;;
6858;SDS011;3468;42.824;23.240;2024-02-23T12:11:21;5.35;;;2.65;;
6858;SDS011;3468;42.824;23.240;2024-02-23T12:13:49;3.50;;;2.08;;
6858;SDS011;3468;42.824;23.240;2024-02-23T12:16:16;3.50;;;2.40;;
6858;SDS011;3468;42.824;23.240;2024-02-23T12:18:43;1.90;;;1.50;;
6858;SDS011;3468;42.824;23.240;2024-02-23T12:21:10;3.23;;;1.50;;
6858;SDS011;3468;42.824;23.240;2024-02-23T12:23:40;2.63;;;2.00;;
6858;SDS011;3468;42.824;23.240;2024-02-23T12:26:08;3.53;;;2.20;;
6858;SDS011;3468;42.824;23.240;2024-02-23T12:28:35;3.30;;;1.70;;
6858;SDS011;3468;42.824;23.240;2024-02-23T12:31:03;4.47;;;1.85;;
6858;SDS011;3468;42.824;23.240;2024-02-23T12:33:31;3.17;;;1.50;;
6858;SDS011;3468;42.824;23.240;2024-02-23T12:35:59;2.35;;;1.60;;
6858;SDS011;3468;42.824;23.240;2024-02-23T12:38:27;4.07;;;2.20;;
6858;SDS011;3468;42.824;23.240;2024-02-23T12:40:53;3.90;;;1.85;;
6858;SDS011;3468;42.824;23.240;2024-02-23T12:43:20;2.13;;;1.63;;
6858;SDS011;3468;42.824;23.240;2024-02-23T12:45:49;5.80;;;1.85;;
6858;SDS011;3468;42.824;23.240;2024-02-23T12:48:18;4.45;;;1.83;;
6858;SDS011;3468;42.824;23.240;2024-02-23T12:50:45;2.22;;;1.90;;
6858;SDS011;3468;42.824;23.240;2024-02-23T12:53:30;3.22;;;1.90;;
6858;SDS011;3468;42.824;23.240;2024-02-23T12:55:58;2.47;;;2.10;;
6858;SDS011;3468;42.824;23.240;2024-02-23T12:58:25;2.22;;;1.65;;
6858;SDS011;3468;42.824;23.240;2024-02-23T13:00:52;3.95;;;1.92;;
6858;SDS011;3468;42.824;23.240;2024-02-23T13:03:20;2.85;;;1.70;;
6858;SDS011;3468;42.824;23.240;2024-02-23T13:05:47;2.00;;;1.80;;
6858;SDS011;3468;42.824;23.240;2024-02-23T13:08:14;2.45;;;1.70;;
6858;SDS011;3468;42.824;23.240;2024-02-23T13:10:41;3.55;;;2.17;;
6858;SDS011;3468;42.824;23.240;2024-02-23T13:13:08;4.72;;;2.25;;
6858;SDS011;3468;42.824;23.240;2024-02-23T13:15:34;2.97;;;2.13;;
6858;SDS011;3468;42.824;23.240;2024-02-23T13:18:02;4.27;;;2.10;;
6858;SDS011;3468;42.824;23.240;2024-02-23T13:20:31;2.72;;;1.85;;
6858;SDS011;3468;42.824;23.240;2024-02-23T13:22:57;3.35;;;2.13;;
6858;SDS011;3468;42.824;23.240;2024-02-23T13:25:24;3.45;;;2.03;;
6858;SDS011;3468;42.824;23.240;2024-02-23T13:27:51;3.33;;;1.98;;
6858;SDS011;3468;42.824;23.240;2024-02-23T13:30:18;2.08;;;1.50;;
6858;SDS011;3468;42.824;23.240;2024-02-23T13:32:44;5.28;;;3.00;;
6858;SDS011;3468;42.824;23.240;2024-02-23T13:35:11;2.08;;;1.45;;
6858;SDS011;3468;42.824;23.240;2024-02-23T13:37:40;3.07;;;1.70;;
6858;SDS011;3468;42.824;23.240;2024-02-23T13:40:08;4.07;;;1.52;;
6858;SDS011;3468;42.824;23.240;2024-02-23T13:42:36;2.20;;;1.42;;
6858;SDS011;3468;42.824;23.240;2024-02-23T13:45:04;1.67;;;1.27;;
6858;SDS011;3468;42.824;23.240;2024-02-23T13:47:32;3.72;;;1.98;;
6858;SDS011;3468;42.824;23.240;2024-02-23T13:49:59;3.63;;;2.10;;
6858;SDS011;3468;42.824;23.240;2024-02-23T13:52:26;2.80;;;1.80;;
6858;SDS011;3468;42.824;23.240;2024-02-23T13:54:54;2.60;;;1.70;;
6858;SDS011;3468;42.824;23.240;2024-02-23T13:57:21;4.00;;;1.73;;
6858;SDS011;3468;42.824;23.240;2024-02-23T13:59:48;1.90;;;1.50;;
6858;SDS011;3468;42.824;23.240;2024-02-23T14:02:15;2.33;;;1.80;;
6858;SDS011;3468;42.824;23.240;2024-02-23T14:04:43;3.10;;;1.80;;
6858;SDS011;3468;42.824;23.240;2024-02-23T14:07:12;2.77;;;1.57;;
6858;SDS011;3468;42.824;23.240;2024-02-23T14:09:39;2.33;;;1.87;;
6858;SDS011;3468;42.824;23.240;2024-02-23T14:12:07;5.60;;;1.70;;
6858;SDS011;3468;42.824;23.240;2024-02-23T14:14:34;3.20;;;1.93;;
6858;SDS011;3468;42.824;23.240;2024-02-23T14:17:01;2.87;;;1.77;;
6858;SDS011;3468;42.824;23.240;2024-02-23T14:19:29;2.80;;;1.60;;
6858;SDS011;3468;42.824;23.240;2024-02-23T14:21:55;2.73;;;1.60;;
6858;SDS011;3468;42.824;23.240;2024-02-23T14:24:22;3.37;;;1.93;;
6858;SDS011;3468;42.824;23.240;2024-02-23T14:26:49;4.30;;;2.00;;
6858;SDS011;3468;42.824;23.240;2024-02-23T14:29:17;2.57;;;2.20;;
6858;SDS011;3468;42.824;23.240;2024-02-23T14:31:43;2.20;;;1.70;;
6858;SDS011;3468;42.824;23.240;2024-02-23T14:34:10;4.30;;;1.90;;
6858;SDS011;3468;42.824;23.240;2024-02-23T14:36:37;4.70;;;1.70;;
6858;SDS011;3468;42.824;23.240;2024-02-23T14:39:04;2.27;;;1.70;;
6858;SDS011;3468;42.824;23.240;2024-02-23T14:41:30;4.60;;;2.20;;
6858;SDS011;3468;42.824;23.240;2024-02-23T14:43:57;3.60;;;1.63;;
6858;SDS011;3468;42.824;23.240;2024-02-23T14:46:25;2.60;;;1.87;;
6858;SDS011;3468;42.824;23.240;2024-02-23T14:48:52;2.83;;;1.77;;